createdAt,value
2019-02-22T00:00:38.617Z,16.47
2019-02-22T00:03:08.133Z,15.10
2019-02-22T00:05:37.550Z,15.30
2019-02-22T00:08:07.271Z,15.20
2019-02-22T00:10:36.691Z,15.53
2019-02-22T00:13:06.250Z,15.53
2019-02-22T00:15:36.352Z,14.87
2019-02-22T00:18:05.984Z,15.53
2019-02-22T00:20:35.435Z,15.60
2019-02-22T00:23:04.982Z,15.23
2019-02-22T00:25:34.414Z,15.50
2019-02-22T00:28:03.910Z,15.57
2019-02-22T00:30:33.414Z,16.07
2019-02-22T00:33:02.865Z,15.57
2019-02-22T00:35:32.461Z,15.83
2019-02-22T00:38:01.907Z,16.10
2019-02-22T00:40:31.349Z,19.33
2019-02-22T00:43:00.854Z,18.13
2019-02-22T00:45:30.276Z,17.43
2019-02-22T00:47:59.721Z,17.27
2019-02-22T00:50:29.181Z,16.97
2019-02-22T00:52:58.754Z,16.97
2019-02-22T00:55:28.177Z,14.07
2019-02-22T00:57:57.646Z,14.10
2019-02-22T01:00:27.054Z,14.07
2019-02-22T01:02:56.616Z,14.73
2019-02-22T01:05:26.093Z,14.07
2019-02-22T01:07:55.690Z,13.27
2019-02-22T01:10:31.286Z,12.93
2019-02-22T01:12:56.308Z,11.93
2019-02-22T01:15:25.811Z,13.50
2019-02-22T01:17:55.316Z,13.33
2019-02-22T01:20:24.833Z,13.37
2019-02-22T01:22:54.283Z,13.70
2019-02-22T01:25:23.725Z,13.60
2019-02-22T01:27:53.161Z,14.00
2019-02-22T01:30:22.586Z,13.93
2019-02-22T01:32:52.141Z,14.30
2019-02-22T01:35:21.659Z,14.07
2019-02-22T01:37:51.178Z,14.47
2019-02-22T01:40:20.624Z,13.80
2019-02-22T01:42:50.075Z,15.37
2019-02-22T01:45:19.497Z,14.60
2019-02-22T01:47:48.958Z,14.13
2019-02-22T01:50:21.947Z,14.50
2019-02-22T01:52:51.422Z,16.53
2019-02-22T01:55:20.855Z,16.33
2019-02-22T01:57:50.300Z,15.80
2019-02-22T02:00:19.821Z,16.27
2019-02-22T02:02:49.347Z,16.23
2019-02-22T02:05:18.798Z,16.80
2019-02-22T02:07:48.238Z,16.60
2019-02-22T02:10:17.760Z,18.70
2019-02-22T02:12:47.282Z,18.27
2019-02-22T02:15:16.749Z,20.77
2019-02-22T02:17:46.264Z,19.77
2019-02-22T02:20:15.890Z,19.63
2019-02-22T02:22:45.604Z,19.33
2019-02-22T02:25:15.131Z,20.47
2019-02-22T02:27:44.576Z,19.00
2019-02-22T02:30:14.162Z,19.40
2019-02-22T02:32:44.681Z,19.83
2019-02-22T02:35:14.260Z,20.40
2019-02-22T02:37:43.688Z,20.13
2019-02-22T02:40:13.285Z,20.57
2019-02-22T02:42:42.808Z,19.70
2019-02-22T02:45:12.359Z,18.37
2019-02-22T02:47:41.993Z,19.40
2019-02-22T02:50:15.310Z,19.70
2019-02-22T02:52:44.815Z,19.13
2019-02-22T02:55:30.301Z,19.23
2019-02-22T02:57:59.816Z,18.07
2019-02-22T03:00:29.349Z,17.93
2019-02-22T03:02:58.851Z,17.40
2019-02-22T03:05:46.189Z,18.50
2019-02-22T03:08:28.861Z,18.60
2019-02-22T05:50:28.453Z,24.47
2019-02-22T07:59:29.207Z,26.07
2019-02-22T10:49:49.041Z,9.30
2019-02-22T11:55:42.956Z,8.47
2019-02-22T11:58:12.501Z,8.23
2019-02-22T12:00:41.947Z,7.13
2019-02-22T12:03:23.810Z,5.33
2019-02-22T12:05:42.587Z,4.40
2019-02-22T12:08:12.091Z,4.47
2019-02-22T12:10:41.539Z,4.30
2019-02-22T12:13:10.976Z,4.50
2019-02-22T12:15:40.421Z,3.80
2019-02-22T12:18:09.863Z,3.70
2019-02-22T12:20:39.446Z,3.20
2019-02-22T12:23:08.956Z,3.90
2019-02-22T12:25:38.514Z,3.47
2019-02-22T12:28:08.110Z,2.80
2019-02-22T12:30:37.596Z,3.20
2019-02-22T12:33:07.135Z,3.50
2019-02-22T12:35:39.347Z,3.00
2019-02-22T12:38:08.796Z,3.53
2019-02-22T12:40:38.220Z,3.30
2019-02-22T12:43:07.651Z,3.47
2019-02-22T12:45:37.180Z,2.83
2019-02-22T12:48:06.678Z,3.20
2019-02-22T12:50:36.201Z,2.90
2019-02-22T12:53:05.812Z,3.83
2019-02-22T12:55:35.258Z,3.30
2019-02-22T12:58:04.675Z,3.50
2019-02-22T13:00:34.124Z,3.47
2019-02-22T13:03:03.642Z,3.20
2019-02-22T13:05:33.092Z,3.33
2019-02-22T13:08:02.527Z,3.87
2019-02-22T13:10:32.019Z,3.03
2019-02-22T13:13:01.521Z,3.30
2019-02-22T13:15:30.997Z,3.10
2019-02-22T13:18:02.900Z,3.93
2019-02-22T13:20:31.688Z,3.60
2019-02-22T13:23:01.251Z,3.87
2019-02-22T13:25:30.700Z,3.27
2019-02-22T13:28:00.135Z,3.70
2019-02-22T13:30:29.607Z,4.17
2019-02-22T13:32:59.035Z,3.83
2019-02-22T13:35:28.515Z,3.47
2019-02-22T13:37:57.944Z,3.67
2019-02-22T13:40:27.427Z,3.40
2019-02-22T13:42:56.921Z,3.50
2019-02-22T13:45:27.322Z,3.27
2019-02-22T13:47:56.925Z,2.90
2019-02-22T13:50:26.448Z,3.37
2019-02-22T13:52:55.939Z,3.67
2019-02-22T13:55:28.207Z,3.40
2019-02-22T13:57:57.636Z,3.77
2019-02-22T14:00:27.070Z,4.13
2019-02-22T14:02:56.501Z,4.00
2019-02-22T14:05:26.022Z,3.33
2019-02-22T14:07:55.511Z,3.50
2019-02-22T14:10:25.363Z,3.57
2019-02-22T14:12:54.881Z,3.63
2019-02-22T14:15:24.319Z,3.53
2019-02-22T14:17:53.762Z,3.57
2019-02-22T14:20:23.313Z,3.50
2019-02-22T14:22:52.825Z,3.80
2019-02-22T14:25:22.374Z,3.70
2019-02-22T14:27:51.830Z,3.30
2019-02-22T14:30:21.284Z,4.10
2019-02-22T14:32:50.738Z,4.00
2019-02-22T14:35:20.282Z,3.67
2019-02-22T14:37:49.722Z,3.67
2019-02-22T14:40:19.181Z,3.90
2019-02-22T14:42:48.682Z,4.20
2019-02-22T14:45:18.116Z,4.43
2019-02-22T14:47:47.698Z,4.47
2019-02-22T14:50:18.128Z,4.80
2019-02-22T14:52:47.953Z,4.67
2019-02-22T14:55:17.440Z,4.73
2019-02-22T14:57:46.857Z,4.27
2019-02-22T15:00:16.608Z,4.27
2019-02-22T15:02:50.597Z,4.23
2019-02-22T15:05:20.165Z,5.00
2019-02-22T15:07:50.292Z,4.30
2019-02-22T15:10:19.892Z,4.43
2019-02-22T15:12:49.384Z,4.50
2019-02-22T15:15:19.504Z,4.80
2019-02-22T15:17:57.940Z,4.50
2019-02-22T15:20:27.396Z,6.17
2019-02-22T15:22:56.939Z,4.23
2019-02-22T15:25:26.432Z,4.73
2019-02-22T15:27:55.972Z,4.60
2019-02-22T15:30:25.477Z,4.07
2019-02-22T15:32:54.932Z,4.17
2019-02-22T15:35:24.389Z,4.70
2019-02-22T15:37:53.892Z,4.70
2019-02-22T15:40:23.415Z,4.43
2019-02-22T15:42:52.933Z,4.40
2019-02-22T15:45:22.516Z,4.70
2019-02-22T15:47:51.986Z,4.50
2019-02-22T15:50:21.508Z,4.53
2019-02-22T15:52:50.985Z,4.33
2019-02-22T15:55:20.465Z,4.53
2019-02-22T15:57:49.894Z,4.97
2019-02-22T16:00:21.203Z,5.20
2019-02-22T16:02:50.611Z,4.77
2019-02-22T16:05:23.661Z,4.47
2019-02-22T16:07:53.127Z,5.10
2019-02-22T16:10:22.672Z,4.83
2019-02-22T16:12:52.127Z,4.87
2019-02-22T16:15:21.591Z,4.70
2019-02-22T16:17:51.092Z,4.53
2019-02-22T16:20:20.530Z,4.50
2019-02-22T16:22:51.447Z,5.00
2019-02-22T16:25:21.160Z,4.80
2019-02-22T16:27:50.664Z,4.80
2019-02-22T16:30:21.652Z,5.03
2019-02-22T16:32:51.174Z,4.90
2019-02-22T16:35:20.716Z,4.57
2019-02-22T16:37:50.195Z,4.43
2019-02-22T16:40:19.771Z,4.60
2019-02-22T16:42:49.261Z,4.30
2019-02-22T16:45:18.708Z,4.80
2019-02-22T16:47:48.268Z,4.97
2019-02-22T16:50:17.719Z,4.93
2019-02-22T16:52:47.243Z,5.73
2019-02-22T16:55:16.766Z,5.47
2019-02-22T16:57:46.188Z,5.53
2019-02-22T17:00:16.344Z,5.30
2019-02-22T17:02:45.759Z,5.13
2019-02-22T17:05:15.258Z,5.67
2019-02-22T17:07:44.728Z,5.47
2019-02-22T17:10:14.162Z,5.80
2019-02-22T17:12:43.583Z,6.00
2019-02-22T17:15:13.100Z,6.07
2019-02-22T17:17:42.567Z,5.23
2019-02-22T17:20:12.015Z,5.60
2019-02-22T17:22:41.539Z,6.13
2019-02-22T17:25:11.815Z,6.03
2019-02-22T17:27:41.478Z,6.10
2019-02-22T17:30:11.659Z,6.63
2019-02-22T17:32:41.410Z,6.00
2019-02-22T17:35:13.697Z,5.33
2019-02-22T17:37:43.230Z,5.10
2019-02-22T17:40:13.155Z,5.23
2019-02-22T17:42:42.695Z,5.23
2019-02-22T17:45:12.129Z,5.80
2019-02-22T17:47:41.653Z,5.10
2019-02-22T17:50:11.075Z,5.17
2019-02-22T17:52:40.632Z,5.50
2019-02-22T17:55:10.194Z,5.70
2019-02-22T17:57:39.706Z,5.47
2019-02-22T18:00:11.902Z,5.40
2019-02-22T18:02:41.353Z,5.90
2019-02-22T18:05:10.776Z,5.40
2019-02-22T18:07:40.328Z,5.33
2019-02-22T18:10:09.760Z,6.07
2019-02-22T18:12:42.202Z,6.07
2019-02-22T18:15:11.662Z,5.47
2019-02-22T18:17:41.343Z,6.80
2019-02-22T18:20:10.784Z,6.07
2019-02-22T18:22:40.243Z,5.40
2019-02-22T18:25:09.667Z,5.20
2019-02-22T18:27:39.094Z,5.60
2019-02-22T18:30:09.140Z,5.20
2019-02-22T18:32:38.706Z,5.73
2019-02-22T18:35:08.347Z,5.87
2019-02-22T18:37:37.812Z,5.30
2019-02-22T18:40:08.629Z,6.63
2019-02-22T18:42:38.167Z,5.77
2019-02-22T18:45:07.758Z,6.77
2019-02-22T18:47:37.268Z,6.83
2019-02-22T18:50:07.212Z,5.73
2019-02-22T18:52:36.663Z,5.40
2019-02-22T18:55:06.291Z,7.00
2019-02-22T18:57:35.888Z,6.47
2019-02-22T19:00:07.822Z,6.70
2019-02-22T19:02:37.445Z,6.73
2019-02-22T19:05:07.228Z,6.30
2019-02-22T19:07:36.668Z,6.10
2019-02-22T19:10:06.681Z,6.77
2019-02-22T19:12:39.121Z,7.60
2019-02-22T19:15:09.339Z,6.13
2019-02-22T19:17:38.955Z,6.27
2019-02-22T19:20:09.513Z,5.93
2019-02-22T19:22:39.055Z,6.20
2019-02-22T19:25:08.474Z,7.37
2019-02-22T19:27:37.940Z,6.33
2019-02-22T19:30:08.523Z,7.07
2019-02-22T19:32:38.057Z,6.53
2019-02-22T19:35:07.732Z,7.27
2019-02-22T19:37:37.229Z,6.47
2019-02-22T19:40:08.113Z,7.33
2019-02-22T19:42:37.598Z,6.43
2019-02-22T19:45:07.240Z,6.63
2019-02-22T19:47:41.906Z,6.53
2019-02-22T19:50:08.821Z,9.43
2019-02-22T19:52:38.275Z,7.77
2019-02-22T19:55:10.832Z,6.80
2019-02-22T19:57:39.930Z,6.17
2019-02-22T20:00:10.582Z,6.70
2019-02-22T20:02:40.062Z,6.33
2019-02-22T20:05:09.813Z,6.80
2019-02-22T20:07:39.246Z,7.77
2019-02-22T20:10:17.425Z,7.63
2019-02-22T20:12:40.875Z,7.87
2019-02-22T20:15:11.070Z,8.00
2019-02-22T20:17:40.512Z,7.63
2019-02-22T20:20:10.932Z,7.43
2019-02-22T20:22:40.376Z,7.27
2019-02-22T20:25:09.845Z,7.83
2019-02-22T20:27:39.399Z,7.47
2019-02-22T20:30:10.086Z,7.40
2019-02-22T20:32:39.525Z,6.70
2019-02-22T20:35:10.027Z,6.53
2019-02-22T20:37:39.576Z,6.73
2019-02-22T20:40:09.113Z,6.10
2019-02-22T20:42:38.587Z,7.07
2019-02-22T20:45:08.064Z,7.03
2019-02-22T20:47:37.608Z,6.50
2019-02-22T20:50:07.605Z,7.27
2019-02-22T20:52:37.168Z,6.63
2019-02-22T20:55:08.447Z,6.73
2019-02-22T20:57:37.978Z,6.80
2019-02-22T21:00:08.708Z,6.70
2019-02-22T21:02:38.242Z,7.10
2019-02-22T21:05:09.014Z,6.63
2019-02-22T21:07:38.601Z,7.60
2019-02-22T21:10:09.244Z,7.80
2019-02-22T21:12:38.777Z,7.30
2019-02-22T21:15:08.934Z,7.90
2019-02-22T21:17:38.448Z,7.47
2019-02-22T21:20:08.508Z,7.40
2019-02-22T21:22:37.977Z,8.47
2019-02-22T21:25:10.343Z,7.80
2019-02-22T21:27:39.936Z,8.10
2019-02-22T21:30:10.111Z,8.17
2019-02-22T21:32:39.667Z,7.97
2019-02-22T21:35:09.123Z,8.30
2019-02-22T21:37:38.582Z,7.97
2019-02-22T21:40:08.360Z,7.43
2019-02-22T21:42:37.891Z,7.77
2019-02-22T21:45:07.564Z,6.43
2019-02-22T21:47:37.059Z,6.90
2019-02-22T21:50:07.469Z,7.10
2019-02-22T21:52:36.932Z,6.80
2019-02-22T21:55:06.434Z,7.17
2019-02-22T21:57:35.878Z,7.20
2019-02-22T22:00:06.100Z,7.13
2019-02-22T22:02:35.562Z,7.50
2019-02-22T22:05:05.095Z,7.07
2019-02-22T22:07:34.532Z,7.27
2019-02-22T22:10:04.204Z,6.87
2019-02-22T22:12:33.727Z,6.80
2019-02-22T22:15:03.217Z,7.03
2019-02-22T22:17:32.645Z,6.30
2019-02-22T22:20:02.198Z,7.77
2019-02-22T22:22:31.651Z,7.77
2019-02-22T22:25:01.109Z,6.73
2019-02-22T22:27:30.560Z,7.80
2019-02-22T22:30:00.093Z,7.07
2019-02-22T22:32:29.520Z,7.57
2019-02-22T22:34:59.046Z,7.53
2019-02-22T22:37:28.491Z,7.30
2019-02-22T22:39:57.943Z,7.07
2019-02-22T22:42:27.372Z,7.10
2019-02-22T22:44:56.821Z,6.50
2019-02-22T22:47:26.847Z,8.23
2019-02-22T22:49:56.358Z,7.90
2019-02-22T22:52:25.775Z,7.47
2019-02-22T22:54:55.244Z,8.47
2019-02-22T22:57:24.667Z,7.33
2019-02-22T22:59:54.119Z,7.30
2019-02-22T23:02:23.562Z,8.00
2019-02-22T23:04:53.009Z,7.10
2019-02-22T23:07:22.632Z,7.03
2019-02-22T23:09:52.088Z,7.23
2019-02-22T23:12:21.507Z,6.30
2019-02-22T23:14:50.959Z,6.37
2019-02-22T23:17:20.448Z,5.53
2019-02-22T23:19:49.993Z,5.60
2019-02-22T23:22:19.493Z,5.63
2019-02-22T23:24:49.048Z,4.97
2019-02-22T23:27:18.467Z,5.20
2019-02-22T23:29:47.975Z,5.50
2019-02-22T23:32:17.408Z,5.43
2019-02-22T23:34:46.943Z,6.03
2019-02-22T23:37:16.348Z,5.67
2019-02-22T23:39:45.856Z,5.37
2019-02-22T23:42:15.367Z,5.63
2019-02-22T23:44:44.856Z,5.70
2019-02-22T23:47:14.324Z,5.60
2019-02-22T23:49:44.509Z,5.30
2019-02-22T23:52:14.103Z,5.30
2019-02-22T23:54:43.538Z,5.30
2019-02-22T23:57:13.050Z,5.60
2019-02-22T23:59:42.486Z,6.03
